createdAt,value
2023-01-23T00:02:10.159Z,102085.95
2023-01-23T00:04:55.180Z,102088.20
2023-01-23T00:07:40.227Z,102091.66
2023-01-23T00:10:25.172Z,102092.98
2023-01-23T00:13:10.295Z,102097.54
2023-01-23T00:15:55.353Z,102106.56
2023-01-23T00:18:40.207Z,102102.45
2023-01-23T00:21:27.372Z,102103.11
2023-01-23T00:24:12.712Z,102103.60
2023-01-23T00:26:58.039Z,102099.53
2023-01-23T00:29:43.038Z,102098.08
2023-01-23T00:32:28.093Z,102099.75
2023-01-23T00:35:12.992Z,102096.61
2023-01-23T00:37:58.333Z,102094.40
2023-01-23T00:40:43.201Z,102092.17
2023-01-23T00:43:28.338Z,102101.90
2023-01-23T00:46:13.741Z,102103.90
2023-01-23T00:48:58.650Z,102106.89
2023-01-23T00:51:44.534Z,102111.48
2023-01-23T00:54:29.635Z,102117.79
2023-01-23T00:57:14.519Z,102118.68
2023-01-23T00:59:59.827Z,102114.86
2023-01-23T01:02:44.876Z,102119.40
2023-01-23T01:05:29.710Z,102116.00
2023-01-23T01:08:14.638Z,102120.08
2023-01-23T01:10:59.909Z,102132.85
2023-01-23T01:13:45.319Z,102130.52
2023-01-23T01:16:30.847Z,102126.77
2023-01-23T01:19:17.499Z,102131.99
2023-01-23T01:22:02.567Z,102129.30
2023-01-23T01:24:47.744Z,102130.25
2023-01-23T01:27:32.664Z,102132.27
2023-01-23T01:30:18.774Z,102125.64
2023-01-23T01:33:04.161Z,102127.80
2023-01-23T01:35:49.293Z,102127.23
2023-01-23T01:38:34.344Z,102133.13
2023-01-23T01:41:19.683Z,102137.09
2023-01-23T01:44:04.465Z,102144.58
2023-01-23T01:46:50.247Z,102147.25
2023-01-23T01:49:35.438Z,102149.77
2023-01-23T01:52:20.557Z,102153.36
2023-01-23T01:55:05.888Z,102154.35
2023-01-23T01:57:53.582Z,102160.23
2023-01-23T02:00:39.256Z,102161.49
2023-01-23T02:03:25.341Z,102164.73
2023-01-23T02:06:10.712Z,102172.02
2023-01-23T02:09:10.618Z,102179.17
2023-01-23T02:11:55.738Z,102185.91
2023-01-23T02:14:41.229Z,102190.41
2023-01-23T02:17:25.896Z,102189.02
2023-01-23T02:20:23.190Z,102192.34
2023-01-23T02:23:50.938Z,102191.80
2023-01-23T02:26:44.659Z,102191.49
2023-01-23T02:29:42.889Z,102191.77
2023-01-23T02:32:28.683Z,102186.59
2023-01-23T02:35:24.070Z,102194.29
2023-01-23T02:38:09.352Z,102196.52
2023-01-23T02:40:54.284Z,102204.64
2023-01-23T02:43:39.857Z,102209.27
2023-01-23T02:46:44.705Z,102214.94
2023-01-23T02:49:29.993Z,102210.84
2023-01-23T02:52:15.324Z,102206.48
2023-01-23T02:55:00.216Z,102213.02
2023-01-23T02:57:45.031Z,102214.45
2023-01-23T03:00:30.016Z,102220.29
2023-01-23T03:03:15.324Z,102221.05
2023-01-23T03:06:03.284Z,102226.43
2023-01-23T03:08:48.717Z,102231.58
2023-01-23T03:11:54.545Z,102231.75
2023-01-23T03:14:39.848Z,102224.42
2023-01-23T03:17:25.393Z,102224.73
2023-01-23T03:20:10.934Z,102221.00
2023-01-23T03:22:56.086Z,102221.71
2023-01-23T03:25:44.492Z,102225.57
2023-01-23T03:28:48.097Z,102224.45
2023-01-23T03:31:33.372Z,102232.23
2023-01-23T03:34:18.479Z,102237.90
2023-01-23T03:37:04.265Z,102239.02
2023-01-23T03:40:08.061Z,102241.54
2023-01-23T03:42:53.000Z,102242.03
2023-01-23T03:45:39.337Z,102240.10
2023-01-23T03:48:25.269Z,102232.79
2023-01-23T03:51:10.713Z,102234.00
2023-01-23T03:53:55.497Z,102237.91
2023-01-23T03:56:41.749Z,102241.58
2023-01-23T03:59:27.025Z,102243.39
2023-01-23T04:02:12.007Z,102246.38
2023-01-23T04:04:56.991Z,102244.02
2023-01-23T04:07:41.649Z,102247.79
2023-01-23T04:10:26.691Z,102244.80
2023-01-23T04:13:11.581Z,102237.79
2023-01-23T04:15:56.470Z,102231.91
2023-01-23T04:18:41.521Z,102229.33
2023-01-23T04:21:26.489Z,102230.30
2023-01-23T04:24:11.563Z,102227.02
2023-01-23T04:26:56.533Z,102229.50
2023-01-23T04:29:41.650Z,102235.55
2023-01-23T04:32:26.380Z,102233.52
2023-01-23T04:35:11.527Z,102231.05
2023-01-23T04:37:56.280Z,102228.88
2023-01-23T04:40:41.282Z,102233.46
2023-01-23T04:43:26.386Z,102233.77
2023-01-23T04:46:12.073Z,102234.83
2023-01-23T04:48:56.987Z,102236.37
2023-01-23T04:51:43.811Z,102243.45
2023-01-23T04:54:29.022Z,102249.45
2023-01-23T04:57:13.994Z,102255.30
2023-01-23T05:00:00.441Z,102259.61
2023-01-23T05:02:46.086Z,102263.69
2023-01-23T05:05:31.730Z,102261.85
2023-01-23T05:08:16.710Z,102263.96
2023-01-23T05:11:02.277Z,102261.96
2023-01-23T05:13:47.315Z,102263.66
2023-01-23T05:16:32.098Z,102270.92
2023-01-23T05:19:17.043Z,102276.77
2023-01-23T05:22:01.878Z,102272.17
2023-01-23T05:24:46.911Z,102282.52
2023-01-23T05:27:32.158Z,102292.19
2023-01-23T05:30:20.471Z,102295.52
2023-01-23T05:33:05.918Z,102299.31
2023-01-23T05:35:50.862Z,102304.32
2023-01-23T05:38:35.796Z,102303.36
2023-01-23T05:41:20.778Z,102307.23
2023-01-23T05:44:05.680Z,102310.04
2023-01-23T05:46:51.236Z,102311.55
2023-01-23T05:49:36.295Z,102314.69
2023-01-23T05:52:21.587Z,102318.11
2023-01-23T05:55:07.086Z,102315.60
2023-01-23T05:57:52.057Z,102316.70
2023-01-23T06:00:37.060Z,102321.58
2023-01-23T06:03:22.289Z,102327.13
2023-01-23T06:06:07.456Z,102329.89
2023-01-23T06:08:52.631Z,102334.35
2023-01-23T06:11:37.880Z,102341.70
2023-01-23T06:14:22.800Z,102340.71
2023-01-23T06:17:08.143Z,102345.46
2023-01-23T06:19:53.200Z,102350.17
2023-01-23T06:22:38.469Z,102352.58
2023-01-23T06:25:23.274Z,102356.05
2023-01-23T06:28:08.360Z,102363.02
2023-01-23T06:30:53.943Z,102363.39
2023-01-23T06:33:39.181Z,102366.59
2023-01-23T06:36:24.325Z,102371.21
2023-01-23T06:39:12.583Z,102375.90
2023-01-23T06:41:57.598Z,102380.35
2023-01-23T06:44:42.707Z,102384.55
2023-01-23T06:47:28.257Z,102388.63
2023-01-23T06:50:13.575Z,102399.20
2023-01-23T06:52:58.431Z,102404.52
2023-01-23T06:55:44.030Z,102405.95
2023-01-23T06:58:28.895Z,102409.96
2023-01-23T07:01:16.257Z,102414.80
2023-01-23T07:04:01.471Z,102416.39
2023-01-23T07:06:46.179Z,102417.64
2023-01-23T07:09:31.528Z,102420.45
2023-01-23T07:12:16.605Z,102418.95
2023-01-23T07:15:01.641Z,102418.20
2023-01-23T07:17:46.499Z,102418.81
2023-01-23T07:20:31.375Z,102421.08
2023-01-23T07:23:16.279Z,102424.16
2023-01-23T07:26:03.539Z,102422.38
2023-01-23T07:28:48.520Z,102425.06
2023-01-23T07:31:34.581Z,102428.78
2023-01-23T07:34:19.501Z,102428.20
2023-01-23T07:37:04.637Z,102429.63
2023-01-23T07:39:50.011Z,102435.20
2023-01-23T07:42:35.002Z,102442.95
2023-01-23T07:45:19.855Z,102441.27
2023-01-23T07:48:04.948Z,102442.61
2023-01-23T07:50:49.806Z,102444.20
2023-01-23T07:53:35.193Z,102444.55
2023-01-23T07:56:20.042Z,102447.43
2023-01-23T07:59:05.002Z,102456.25
2023-01-23T08:01:51.880Z,102456.27
2023-01-23T08:04:36.980Z,102457.12
2023-01-23T08:07:23.241Z,102460.59
2023-01-23T08:10:09.398Z,102464.34
2023-01-23T08:12:54.273Z,102460.45
2023-01-23T08:15:39.488Z,102456.01
2023-01-23T08:18:25.729Z,102455.20
2023-01-23T08:21:11.401Z,102453.45
2023-01-23T08:23:56.095Z,102448.87
2023-01-23T08:26:41.472Z,102443.21
2023-01-23T08:29:26.910Z,102448.63
2023-01-23T08:32:11.994Z,102452.84
2023-01-23T08:34:56.907Z,102458.58
2023-01-23T08:37:41.737Z,102458.77
2023-01-23T08:40:26.674Z,102460.25
2023-01-23T08:43:13.334Z,102461.61
2023-01-23T08:45:59.059Z,102463.93
2023-01-23T08:48:44.080Z,102462.10
2023-01-23T08:51:29.088Z,102465.27
2023-01-23T08:54:14.166Z,102462.73
2023-01-23T08:56:59.099Z,102472.05
2023-01-23T08:59:43.874Z,102476.00
2023-01-23T09:02:28.993Z,102476.41
2023-01-23T09:05:14.220Z,102475.73
2023-01-23T09:08:01.694Z,102471.98
2023-01-23T09:10:46.758Z,102471.92
2023-01-23T09:13:32.146Z,102480.45
2023-01-23T09:16:17.176Z,102485.60
2023-01-23T09:19:02.339Z,102489.95
2023-01-23T09:21:47.324Z,102491.14
2023-01-23T09:24:32.215Z,102489.32
2023-01-23T09:27:17.590Z,102489.48
2023-01-23T09:30:02.920Z,102491.88
2023-01-23T09:32:47.545Z,102493.29
2023-01-23T09:35:33.270Z,102488.66
2023-01-23T09:38:18.388Z,102481.97
2023-01-23T09:41:10.009Z,102482.55
2023-01-23T09:44:06.746Z,102484.60
2023-01-23T09:47:10.652Z,102486.02
2023-01-23T09:50:06.571Z,102484.79
2023-01-23T09:53:01.356Z,102487.46
2023-01-23T09:55:58.014Z,102492.35
2023-01-23T09:58:57.619Z,102493.85
2023-01-23T10:01:42.668Z,102491.27
2023-01-23T10:04:27.961Z,102486.36
2023-01-23T10:07:38.074Z,102481.05
2023-01-23T10:10:29.005Z,102477.95
2023-01-23T10:13:16.894Z,102486.27
2023-01-23T10:16:48.825Z,102484.04
2023-01-23T10:19:40.447Z,102479.13
2023-01-23T10:22:35.378Z,102473.79
2023-01-23T10:25:27.647Z,102472.87
2023-01-23T10:28:38.653Z,102469.95
2023-01-23T10:31:47.589Z,102469.77
2023-01-23T10:35:03.266Z,102463.52
2023-01-23T10:38:01.471Z,102459.01
2023-01-23T10:41:07.703Z,102461.13
2023-01-23T10:43:54.374Z,102459.13
2023-01-23T10:46:46.686Z,102454.42
2023-01-23T10:49:38.649Z,102455.81
2023-01-23T10:52:28.677Z,102459.89
2023-01-23T10:55:19.831Z,102464.39
2023-01-23T10:58:07.470Z,102461.27
2023-01-23T11:00:52.732Z,102460.20
2023-01-23T11:03:38.017Z,102460.66
2023-01-23T11:06:25.396Z,102456.60
2023-01-23T11:09:19.898Z,102457.77
2023-01-23T11:12:05.564Z,102457.55
2023-01-23T11:14:51.763Z,102455.69
2023-01-23T11:17:37.325Z,102455.34
2023-01-23T11:20:32.702Z,102451.58
2023-01-23T11:23:17.979Z,102448.11
2023-01-23T11:26:03.117Z,102443.49
2023-01-23T11:28:49.116Z,102437.61
2023-01-23T11:31:34.102Z,102440.68
2023-01-23T11:34:23.007Z,102446.35
2023-01-23T11:37:15.277Z,102442.67
2023-01-23T11:40:04.929Z,102439.78
2023-01-23T11:42:50.250Z,102442.40
2023-01-23T11:45:43.938Z,102440.55
2023-01-23T11:48:35.024Z,102445.60
2023-01-23T11:51:35.217Z,102443.86
2023-01-23T11:54:46.495Z,102443.52
2023-01-23T11:57:46.559Z,102444.23
2023-01-23T12:00:58.540Z,102444.05
2023-01-23T12:03:49.429Z,102436.98
2023-01-23T12:06:57.474Z,102430.14
2023-01-23T12:09:54.092Z,102429.05
2023-01-23T12:13:10.869Z,102423.41
2023-01-23T12:16:01.777Z,102424.12
2023-01-23T12:18:55.206Z,102424.63
2023-01-23T12:21:51.869Z,102419.08
2023-01-23T12:24:55.543Z,102418.10
2023-01-23T12:27:45.687Z,102420.30
2023-01-23T12:30:52.847Z,102415.31
2023-01-23T12:34:13.358Z,102419.94
2023-01-23T12:37:30.734Z,102422.26
2023-01-23T12:40:26.267Z,102425.63
2023-01-23T12:43:19.145Z,102423.77
2023-01-23T12:46:15.629Z,102422.48
2023-01-23T12:49:21.467Z,102426.17
2023-01-23T12:52:26.500Z,102422.27
2023-01-23T12:55:17.725Z,102416.67
2023-01-23T12:58:11.126Z,102420.11
2023-01-23T13:01:47.133Z,102417.02
2023-01-23T13:04:50.344Z,102419.61
2023-01-23T13:07:48.466Z,102425.34
2023-01-23T13:11:08.661Z,102424.86
2023-01-23T13:13:53.645Z,102421.39
2023-01-23T13:16:38.521Z,102422.59
2023-01-23T13:19:47.600Z,102423.02
2023-01-23T13:22:33.857Z,102428.77
2023-01-23T13:25:18.967Z,102426.83
2023-01-23T13:28:43.941Z,102428.98
2023-01-23T13:31:49.528Z,102435.55
2023-01-23T13:34:35.468Z,102433.06
2023-01-23T13:37:40.867Z,102435.10
2023-01-23T13:40:25.890Z,102435.73
2023-01-23T13:43:33.443Z,102437.77
2023-01-23T13:46:37.074Z,102432.14
2023-01-23T14:22:28.400Z,102461.67
2023-01-23T14:25:17.746Z,102462.52
2023-01-23T14:28:04.250Z,102465.16
2023-01-23T14:30:58.210Z,102468.64
2023-01-23T14:33:44.685Z,102470.27
2023-01-23T14:36:32.472Z,102471.52
2023-01-23T14:39:20.331Z,102469.39
2023-01-23T14:42:09.580Z,102466.34
2023-01-23T14:45:02.035Z,102467.05
2023-01-23T14:47:56.121Z,102466.58
2023-01-23T14:50:45.190Z,102469.62
2023-01-23T14:53:29.855Z,102468.58
2023-01-23T14:56:14.791Z,102469.62
2023-01-23T14:59:06.123Z,102468.69
2023-01-23T15:01:55.637Z,102471.10
2023-01-23T15:04:40.621Z,102474.85
2023-01-23T15:07:25.839Z,102476.36
2023-01-23T15:10:25.419Z,102479.62
2023-01-23T15:13:20.013Z,102476.87
2023-01-23T15:16:11.663Z,102477.64
2023-01-23T15:19:06.089Z,102478.33
2023-01-23T15:22:04.927Z,102478.53
2023-01-23T15:24:50.305Z,102482.98
2023-01-23T15:27:37.276Z,102482.73
2023-01-23T15:30:44.717Z,102479.92
2023-01-23T15:33:31.439Z,102485.59
2023-01-23T15:36:29.376Z,102483.51
2023-01-23T15:39:22.141Z,102482.45
2023-01-23T15:42:13.128Z,102484.44
2023-01-23T15:45:00.692Z,102483.55
2023-01-23T15:47:45.829Z,102488.48
2023-01-23T15:50:30.880Z,102491.73
2023-01-23T15:53:15.751Z,102487.27
2023-01-23T15:56:01.621Z,102482.19
2023-01-23T15:58:46.874Z,102486.34
2023-01-23T16:01:32.173Z,102487.39
2023-01-23T16:04:17.741Z,102490.27
2023-01-23T16:07:07.801Z,102486.70
2023-01-23T16:09:54.507Z,102487.73
2023-01-23T16:12:39.715Z,102491.44
2023-01-23T16:15:27.518Z,102492.86
2023-01-23T16:18:12.518Z,102497.39
2023-01-23T16:20:57.260Z,102497.24
2023-01-23T16:23:47.576Z,102498.36
2023-01-23T16:26:33.379Z,102499.71
2023-01-23T16:29:30.092Z,102503.88
2023-01-23T16:32:15.312Z,102511.88
2023-01-23T16:35:00.239Z,102507.60
2023-01-23T16:37:47.795Z,102509.27
2023-01-23T16:40:33.885Z,102505.84
2023-01-23T16:43:20.592Z,102508.45
2023-01-23T16:46:05.872Z,102515.11
2023-01-23T16:48:54.104Z,102519.98
2023-01-23T16:51:45.886Z,102527.02
2023-01-23T16:54:31.199Z,102528.44
2023-01-23T16:57:18.857Z,102527.73
2023-01-23T17:00:04.099Z,102528.96
2023-01-23T17:02:57.385Z,102529.34
2023-01-23T17:05:42.562Z,102534.25
2023-01-23T17:08:27.738Z,102532.75
2023-01-23T17:11:36.901Z,102532.89
2023-01-23T17:14:29.818Z,102532.38
2023-01-23T17:17:18.822Z,102532.41
2023-01-23T17:20:04.855Z,102534.46
2023-01-23T17:22:49.582Z,102534.48
2023-01-23T17:25:34.897Z,102536.18
2023-01-23T17:28:20.802Z,102540.58
2023-01-23T17:31:06.000Z,102538.79
2023-01-23T17:33:55.155Z,102539.16
2023-01-23T17:36:40.207Z,102543.13
2023-01-23T17:39:25.348Z,102544.52
2023-01-23T17:42:14.541Z,102540.53
2023-01-23T17:44:59.998Z,102541.01
2023-01-23T17:47:48.415Z,102539.66
2023-01-23T17:50:33.590Z,102538.47
2023-01-23T17:53:18.829Z,102539.51
2023-01-23T17:56:04.426Z,102539.93
2023-01-23T17:58:49.495Z,102539.86
2023-01-23T18:01:34.853Z,102542.74
2023-01-23T18:04:21.806Z,102542.06
2023-01-23T18:07:09.249Z,102545.23
2023-01-23T18:09:55.630Z,102544.17
2023-01-23T18:12:46.680Z,102547.14
2023-01-23T18:15:31.736Z,102546.46
2023-01-23T18:18:37.978Z,102546.80
2023-01-23T18:21:23.019Z,102544.84
2023-01-23T18:24:29.668Z,102543.61
2023-01-23T18:27:24.950Z,102542.69
2023-01-23T18:30:10.109Z,102540.27
2023-01-23T18:32:57.791Z,102542.45
2023-01-23T18:36:20.051Z,102542.13
2023-01-23T18:39:24.008Z,102541.04
2023-01-23T18:42:26.767Z,102539.89
2023-01-23T18:45:23.663Z,102541.25
2023-01-23T18:48:24.517Z,102541.20
2023-01-23T18:51:22.255Z,102545.80
2023-01-23T18:54:41.724Z,102544.59
2023-01-23T18:57:27.156Z,102541.67
2023-01-23T19:00:19.946Z,102540.77
2023-01-23T19:03:16.057Z,102545.34
2023-01-23T19:06:01.072Z,102551.88
2023-01-23T19:08:47.267Z,102552.09
2023-01-23T19:11:38.275Z,102554.30
2023-01-23T19:14:42.120Z,102555.23
2023-01-23T19:17:53.752Z,102555.92
2023-01-23T19:20:39.282Z,102554.64
2023-01-23T19:23:47.261Z,102553.60
2023-01-23T19:26:34.366Z,102557.58
2023-01-23T19:29:22.491Z,102556.14
2023-01-23T19:32:10.022Z,102553.19
2023-01-23T19:34:56.480Z,102549.78
2023-01-23T19:37:44.558Z,102550.23
2023-01-23T19:40:29.536Z,102551.73
2023-01-23T19:43:15.761Z,102550.34
2023-01-23T19:46:02.353Z,102549.58
2023-01-23T19:48:47.600Z,102554.20
2023-01-23T19:51:33.146Z,102553.80
2023-01-23T19:54:18.503Z,102550.73
2023-01-23T19:57:03.719Z,102555.23
2023-01-23T19:59:48.716Z,102555.90
2023-01-23T20:02:33.722Z,102551.13
2023-01-23T20:05:19.317Z,102552.23
2023-01-23T20:08:04.713Z,102552.36
2023-01-23T20:10:50.027Z,102552.47
2023-01-23T20:13:35.195Z,102552.43
2023-01-23T20:16:24.394Z,102555.98
2023-01-23T20:19:13.769Z,102554.52
2023-01-23T20:21:58.976Z,102556.45
2023-01-23T20:24:43.582Z,102555.73
2023-01-23T20:27:28.613Z,102552.02
2023-01-23T20:30:17.392Z,102555.60
2023-01-23T20:33:04.682Z,102552.13
2023-01-23T20:35:52.105Z,102553.63
2023-01-23T20:38:37.996Z,102551.42
2023-01-23T20:41:22.953Z,102553.38
2023-01-23T20:44:08.036Z,102557.23
2023-01-23T20:46:52.790Z,102562.50
2023-01-23T20:49:37.857Z,102562.84
2023-01-23T20:52:41.468Z,102561.27
2023-01-23T20:55:26.678Z,102559.95
2023-01-23T20:58:30.122Z,102562.61
2023-01-23T21:01:17.208Z,102561.09
2023-01-23T21:04:02.073Z,102555.89
2023-01-23T21:06:47.070Z,102559.41
2023-01-23T21:09:32.402Z,102557.04
2023-01-23T21:12:17.374Z,102552.84
2023-01-23T21:15:02.647Z,102544.55
2023-01-23T21:17:48.091Z,102541.00
2023-01-23T21:20:33.458Z,102537.55
2023-01-23T21:23:18.982Z,102534.67
2023-01-23T21:26:04.778Z,102530.30
2023-01-23T21:28:51.864Z,102530.34
2023-01-23T21:31:40.985Z,102528.55
2023-01-23T21:34:26.541Z,102526.42
2023-01-23T21:37:11.743Z,102529.22
2023-01-23T21:39:56.480Z,102527.66
2023-01-23T21:42:41.426Z,102525.54
2023-01-23T21:45:26.397Z,102524.55
2023-01-23T21:48:11.619Z,102523.33
2023-01-23T21:51:06.483Z,102528.40
2023-01-23T21:53:51.611Z,102532.19
2023-01-23T21:56:36.863Z,102535.92
2023-01-23T21:59:22.126Z,102526.52
2023-01-23T22:02:07.058Z,102528.90
2023-01-23T22:04:51.966Z,102534.02
2023-01-23T22:07:37.133Z,102533.72
2023-01-23T22:10:22.379Z,102536.70
2023-01-23T22:13:07.279Z,102537.47
2023-01-23T22:15:52.428Z,102539.30
2023-01-23T22:18:37.625Z,102547.96
2023-01-23T22:21:22.808Z,102547.88
2023-01-23T22:24:08.095Z,102550.23
2023-01-23T22:26:53.073Z,102548.94
2023-01-23T22:29:38.098Z,102547.71
2023-01-23T22:32:23.198Z,102546.45
2023-01-23T22:35:10.319Z,102546.83
2023-01-23T22:37:55.562Z,102550.88
2023-01-23T22:40:41.052Z,102546.65
2023-01-23T22:43:25.978Z,102544.46
2023-01-23T22:46:16.671Z,102545.67
2023-01-23T22:49:01.547Z,102548.92
2023-01-23T22:51:46.625Z,102546.88
2023-01-23T22:54:31.464Z,102550.52
2023-01-23T22:57:16.367Z,102550.74
2023-01-23T23:00:03.895Z,102548.36
2023-01-23T23:02:49.081Z,102554.08
2023-01-23T23:05:33.763Z,102554.42
2023-01-23T23:08:18.779Z,102552.27
2023-01-23T23:11:05.468Z,102556.17
2023-01-23T23:13:50.534Z,102551.30
2023-01-23T23:16:35.726Z,102549.30
2023-01-23T23:19:20.452Z,102554.88
2023-01-23T23:22:05.527Z,102554.39
2023-01-23T23:24:50.753Z,102558.42
2023-01-23T23:27:35.686Z,102560.61
2023-01-23T23:30:20.961Z,102558.45
2023-01-23T23:33:06.269Z,102557.52
2023-01-23T23:35:51.474Z,102552.06
2023-01-23T23:38:36.343Z,102552.77
2023-01-23T23:41:21.225Z,102548.84
2023-01-23T23:44:06.247Z,102552.34
2023-01-23T23:46:51.067Z,102553.66
2023-01-23T23:49:36.002Z,102554.14
2023-01-23T23:52:21.103Z,102556.55
2023-01-23T23:55:06.508Z,102558.60
2023-01-23T23:57:51.625Z,102554.98
